createdAt,value
2019-03-06T00:00:39.140Z,5.59
2019-03-06T00:03:10.900Z,5.60
2019-03-06T00:05:43.075Z,5.54
2019-03-06T00:08:15.135Z,5.54
2019-03-06T00:10:47.013Z,5.56
2019-03-06T00:13:18.544Z,5.59
2019-03-06T00:15:50.425Z,5.62
2019-03-06T00:18:22.333Z,5.59
2019-03-06T00:20:54.253Z,5.56
2019-03-06T00:23:26.193Z,5.60
2019-03-06T00:25:57.982Z,5.55
2019-03-06T00:28:29.779Z,5.60
2019-03-06T00:31:01.380Z,5.59
2019-03-06T00:33:33.006Z,5.50
2019-03-06T00:36:06.419Z,5.54
2019-03-06T00:38:38.188Z,5.47
2019-03-06T00:41:11.314Z,5.48
2019-03-06T00:43:42.798Z,5.52
2019-03-06T00:46:14.442Z,5.53
2019-03-06T00:48:46.097Z,5.50
2019-03-06T00:51:17.963Z,5.54
2019-03-06T00:53:49.887Z,5.56
2019-03-06T00:56:21.449Z,5.57
2019-03-06T00:58:53.365Z,5.58
2019-03-06T01:01:25.018Z,5.62
2019-03-06T01:03:56.827Z,5.62
2019-03-06T01:06:28.780Z,5.61
2019-03-06T01:09:00.237Z,5.63
2019-03-06T01:11:32.367Z,5.61
2019-03-06T01:14:03.908Z,5.61
2019-03-06T01:16:35.615Z,5.56
2019-03-06T01:19:07.699Z,5.60
2019-03-06T01:21:39.462Z,5.61
2019-03-06T01:24:11.353Z,5.60
2019-03-06T01:26:43.122Z,5.62
2019-03-06T01:29:14.890Z,5.67
2019-03-06T01:31:46.866Z,5.66
2019-03-06T01:34:20.243Z,5.69
2019-03-06T01:36:53.853Z,5.70
2019-03-06T01:39:40.340Z,5.73
2019-03-06T01:42:17.015Z,5.71
2019-03-06T01:44:49.580Z,5.73
2019-03-06T01:47:21.178Z,5.75
2019-03-06T01:49:52.615Z,5.75
2019-03-06T01:52:24.320Z,5.75
2019-03-06T01:54:56.213Z,5.73
2019-03-06T01:57:27.707Z,5.74
2019-03-06T01:59:59.506Z,5.75
2019-03-06T02:02:31.127Z,5.78
2019-03-06T02:05:03.046Z,5.76
2019-03-06T02:07:35.173Z,5.77
2019-03-06T02:10:07.545Z,5.75
2019-03-06T02:12:39.405Z,5.75
2019-03-06T02:15:12.668Z,5.75
2019-03-06T02:17:44.358Z,5.74
2019-03-06T02:20:17.079Z,5.75
2019-03-06T02:22:50.420Z,5.74
2019-03-06T02:25:22.155Z,5.76
2019-03-06T02:27:53.843Z,5.76
2019-03-06T02:30:25.918Z,5.76
2019-03-06T02:32:57.878Z,5.73
2019-03-06T02:35:30.613Z,5.72
2019-03-06T02:38:02.399Z,5.70
2019-03-06T02:40:33.895Z,5.70
2019-03-06T02:43:05.452Z,5.71
2019-03-06T02:45:37.027Z,5.74
2019-03-06T02:48:08.968Z,5.73
2019-03-06T02:50:40.677Z,5.68
2019-03-06T02:53:12.324Z,5.66
2019-03-06T02:55:43.921Z,5.59
2019-03-06T02:58:17.464Z,5.59
2019-03-06T03:00:50.953Z,5.61
2019-03-06T03:03:40.953Z,5.61
2019-03-06T03:06:16.946Z,5.61
2019-03-06T03:08:48.892Z,5.67
2019-03-06T03:11:20.655Z,5.60
2019-03-06T03:13:52.525Z,5.56
2019-03-06T03:16:24.607Z,5.61
2019-03-06T03:18:56.203Z,5.63
2019-03-06T03:21:27.859Z,5.58
2019-03-06T03:23:59.487Z,5.62
2019-03-06T03:26:31.170Z,5.61
2019-03-06T03:29:02.895Z,5.62
2019-03-06T03:31:34.664Z,5.58
2019-03-06T03:34:06.256Z,5.60
2019-03-06T03:36:38.084Z,5.59
2019-03-06T03:39:12.285Z,5.60
2019-03-06T03:41:43.942Z,5.59
2019-03-06T03:44:16.604Z,5.55
2019-03-06T03:46:48.508Z,5.49
2019-03-06T03:49:20.172Z,5.53
2019-03-06T03:51:52.268Z,5.50
2019-03-06T03:54:25.291Z,5.52
2019-03-06T03:56:57.081Z,5.55
2019-03-06T03:59:29.110Z,5.53
2019-03-06T04:02:00.892Z,5.56
2019-03-06T04:04:32.463Z,5.54
2019-03-06T04:07:04.164Z,5.55
2019-03-06T04:09:37.481Z,5.50
2019-03-06T04:12:09.086Z,5.48
2019-03-06T04:14:40.820Z,5.51
2019-03-06T04:17:12.468Z,5.48
2019-03-06T04:19:44.214Z,5.51
2019-03-06T04:22:16.247Z,5.50
2019-03-06T04:24:47.747Z,5.49
2019-03-06T04:27:19.598Z,5.52
2019-03-06T04:29:51.330Z,5.51
2019-03-06T04:32:23.141Z,5.51
2019-03-06T04:34:54.700Z,5.51
2019-03-06T04:37:26.488Z,5.46
2019-03-06T04:39:58.452Z,5.46
2019-03-06T04:42:30.141Z,5.41
2019-03-06T04:45:01.622Z,5.40
2019-03-06T04:47:33.533Z,5.43
2019-03-06T04:50:05.978Z,5.45
2019-03-06T04:52:37.532Z,5.37
2019-03-06T04:55:10.316Z,5.39
2019-03-06T04:57:42.144Z,5.42
2019-03-06T05:00:14.125Z,5.39
2019-03-06T05:02:45.701Z,5.39
2019-03-06T05:05:17.383Z,5.42
2019-03-06T05:07:48.938Z,5.39
2019-03-06T05:10:20.445Z,5.42
2019-03-06T05:12:51.999Z,5.39
2019-03-06T05:15:23.770Z,5.31
2019-03-06T05:18:06.022Z,5.31
2019-03-06T05:20:37.542Z,5.28
2019-03-06T05:23:09.410Z,5.24
2019-03-06T05:25:40.921Z,5.24
2019-03-06T05:28:12.676Z,5.16
2019-03-06T05:30:44.343Z,5.22
2019-03-06T05:33:16.233Z,5.21
2019-03-06T05:36:31.448Z,5.17
2019-03-06T05:39:10.434Z,5.17
2019-03-06T05:41:42.096Z,5.20
2019-03-06T05:44:14.055Z,5.21
2019-03-06T05:46:45.673Z,5.17
2019-03-06T05:49:17.188Z,5.19
2019-03-06T05:51:48.571Z,5.13
2019-03-06T05:54:19.970Z,5.17
2019-03-06T05:56:51.783Z,5.13
2019-03-06T05:59:23.951Z,5.08
2019-03-06T06:01:56.094Z,5.11
2019-03-06T06:04:27.800Z,5.14
2019-03-06T06:06:59.557Z,5.05
2019-03-06T06:09:31.409Z,5.11
2019-03-06T06:12:03.128Z,5.15
2019-03-06T06:14:34.652Z,5.13
2019-03-06T06:17:05.943Z,5.10
2019-03-06T06:19:38.123Z,5.11
2019-03-06T06:22:17.483Z,5.10
2019-03-06T06:24:49.331Z,5.06
2019-03-06T06:27:20.798Z,5.10
2019-03-06T06:29:52.719Z,5.09
2019-03-06T06:32:25.058Z,5.11
2019-03-06T06:34:56.505Z,5.10
2019-03-06T06:37:28.065Z,5.04
2019-03-06T06:39:59.938Z,5.08
2019-03-06T06:42:31.627Z,5.06
2019-03-06T06:45:03.322Z,5.08
2019-03-06T06:47:34.850Z,5.13
2019-03-06T06:50:07.303Z,5.17
2019-03-06T06:53:29.081Z,5.18
2019-03-06T06:56:41.477Z,5.16
2019-03-06T06:59:29.300Z,5.16
2019-03-06T07:02:34.951Z,5.13
2019-03-06T07:05:17.641Z,5.16
2019-03-06T07:07:53.892Z,5.24
2019-03-06T07:10:43.455Z,5.17
2019-03-06T07:13:16.792Z,5.15
2019-03-06T07:15:53.009Z,5.23
2019-03-06T07:18:32.524Z,5.24
2019-03-06T07:21:05.756Z,5.23
2019-03-06T07:23:38.722Z,5.30
2019-03-06T07:26:12.269Z,5.37
2019-03-06T07:28:51.725Z,5.46
2019-03-06T07:31:25.004Z,5.49
2019-03-06T07:33:58.416Z,5.48
2019-03-06T07:36:46.594Z,5.56
2019-03-06T07:39:25.627Z,5.64
2019-03-06T07:42:04.863Z,5.68
2019-03-06T07:44:41.113Z,5.75
2019-03-06T07:47:17.281Z,5.68
2019-03-06T07:49:51.406Z,5.76
2019-03-06T07:52:30.461Z,5.81
2019-03-06T07:55:06.276Z,5.93
2019-03-06T07:58:14.253Z,5.95
2019-03-06T08:00:45.822Z,6.03
2019-03-06T08:03:50.719Z,5.84
2019-03-06T08:06:22.375Z,5.84
2019-03-06T08:08:54.413Z,5.88
2019-03-06T08:11:27.692Z,5.76
2019-03-06T08:14:00.813Z,5.78
2019-03-06T08:16:34.395Z,5.84
2019-03-06T08:19:08.513Z,5.88
2019-03-06T08:21:44.593Z,5.86
2019-03-06T08:24:30.749Z,5.86
2019-03-06T08:27:02.263Z,5.82
2019-03-06T08:29:34.100Z,5.77
2019-03-06T08:32:07.321Z,5.85
2019-03-06T08:34:39.036Z,5.86
2019-03-06T08:37:10.992Z,5.90
2019-03-06T08:39:42.653Z,6.02
2019-03-06T08:42:14.322Z,6.09
2019-03-06T08:44:46.443Z,6.08
2019-03-06T08:47:31.651Z,6.17
2019-03-06T08:50:04.788Z,6.10
2019-03-06T08:52:42.229Z,6.29
2019-03-06T08:55:31.828Z,6.40
2019-03-06T08:58:08.595Z,6.35
2019-03-06T09:00:51.270Z,6.42
2019-03-06T09:03:26.724Z,6.39
2019-03-06T09:06:11.674Z,6.61
2019-03-06T09:08:50.610Z,6.76
2019-03-06T09:11:23.863Z,6.91
2019-03-06T09:13:56.866Z,6.91
2019-03-06T09:16:39.344Z,6.91
2019-03-06T09:19:21.972Z,6.77
2019-03-06T09:22:02.269Z,6.86
2019-03-06T09:24:51.910Z,6.92
2019-03-06T09:27:41.324Z,7.47
2019-03-06T09:30:19.747Z,7.28
2019-03-06T09:33:00.340Z,8.27
2019-03-06T09:35:43.236Z,9.26
2019-03-06T09:38:16.386Z,9.84
2019-03-06T09:40:49.902Z,10.04
2019-03-06T09:43:26.097Z,9.55
2019-03-06T09:45:59.762Z,9.37
2019-03-06T09:48:35.755Z,9.28
2019-03-06T09:51:09.072Z,9.10
2019-03-06T09:53:51.897Z,9.48
2019-03-06T09:56:25.181Z,9.95
2019-03-06T09:58:58.414Z,9.60
2019-03-06T10:01:31.954Z,9.35
2019-03-06T10:04:05.007Z,9.71
2019-03-06T10:06:44.350Z,10.89
2019-03-06T10:09:21.302Z,10.59
2019-03-06T10:12:09.955Z,10.95
2019-03-06T10:14:49.144Z,10.64
2019-03-06T10:17:22.905Z,10.71
2019-03-06T10:20:02.061Z,10.62
2019-03-06T10:22:33.795Z,10.82
2019-03-06T10:25:06.135Z,11.42
2019-03-06T10:27:38.243Z,11.77
2019-03-06T10:30:12.714Z,10.83
2019-03-06T10:32:44.744Z,11.11
2019-03-06T10:35:17.216Z,10.44
2019-03-06T10:37:49.816Z,10.69
2019-03-06T10:40:21.521Z,11.28
2019-03-06T10:42:53.525Z,11.40
2019-03-06T10:45:25.199Z,11.48
2019-03-06T10:47:56.999Z,12.06
2019-03-06T10:50:31.292Z,11.31
2019-03-06T10:53:02.688Z,11.91
2019-03-06T10:55:34.400Z,12.25
2019-03-06T10:58:06.553Z,11.47
2019-03-06T11:00:40.441Z,11.24
2019-03-06T11:03:12.560Z,11.35
2019-03-06T11:05:44.628Z,11.99
2019-03-06T11:08:17.353Z,11.35
2019-03-06T11:10:49.232Z,11.55
2019-03-06T11:13:21.045Z,11.19
2019-03-06T11:15:55.973Z,11.77
2019-03-06T11:18:26.247Z,11.65
2019-03-06T11:20:57.986Z,11.29
2019-03-06T11:23:30.518Z,11.82
2019-03-06T11:26:06.367Z,11.93
2019-03-06T11:28:38.857Z,11.21
2019-03-06T11:31:11.738Z,11.16
2019-03-06T11:33:43.905Z,11.94
2019-03-06T11:36:15.939Z,12.22
2019-03-06T11:38:47.677Z,12.12
2019-03-06T11:41:20.549Z,11.49
2019-03-06T11:43:52.121Z,11.19
2019-03-06T11:46:23.933Z,10.81
2019-03-06T11:48:55.767Z,11.35
2019-03-06T11:51:27.404Z,11.37
2019-03-06T11:53:59.046Z,11.65
2019-03-06T11:56:32.665Z,12.68
2019-03-06T11:59:04.479Z,13.16
2019-03-06T12:01:36.086Z,12.06
2019-03-06T12:04:07.675Z,12.05
2019-03-06T12:06:39.559Z,13.05
2019-03-06T12:09:28.664Z,12.76
2019-03-06T12:12:01.027Z,13.28
2019-03-06T12:14:33.055Z,14.07
2019-03-06T12:17:04.814Z,13.80
2019-03-06T12:19:36.646Z,12.74
2019-03-06T12:22:08.301Z,13.53
2019-03-06T12:24:40.014Z,13.65
2019-03-06T12:27:11.766Z,13.02
2019-03-06T12:29:43.451Z,13.36
2019-03-06T12:32:15.416Z,12.23
2019-03-06T12:34:47.676Z,11.43
2019-03-06T12:37:19.635Z,12.18
2019-03-06T12:39:51.386Z,11.96
2019-03-06T12:42:23.098Z,13.18
2019-03-06T12:44:55.828Z,13.22
2019-03-06T12:47:27.410Z,13.06
2019-03-06T12:50:05.431Z,13.22
2019-03-06T12:52:33.504Z,14.24
2019-03-06T12:55:06.079Z,13.70
2019-03-06T12:57:37.657Z,12.39
2019-03-06T13:00:18.335Z,12.84
2019-03-06T13:02:50.345Z,13.88
2019-03-06T13:05:23.445Z,14.25
2019-03-06T13:07:55.311Z,13.34
2019-03-06T13:10:27.113Z,14.24
2019-03-06T13:12:58.604Z,14.24
2019-03-06T13:15:30.133Z,14.19
2019-03-06T13:18:01.830Z,13.58
2019-03-06T13:20:33.361Z,14.74
2019-03-06T13:23:06.633Z,14.44
2019-03-06T13:25:38.360Z,14.12
2019-03-06T13:28:12.033Z,13.11
2019-03-06T13:30:43.839Z,13.78
2019-03-06T13:33:23.058Z,13.46
2019-03-06T13:35:54.597Z,14.36
2019-03-06T13:38:26.368Z,13.50
2019-03-06T13:40:57.802Z,13.61
2019-03-06T13:43:29.274Z,13.66
2019-03-06T13:46:01.000Z,13.34
2019-03-06T13:48:33.043Z,13.58
2019-03-06T13:51:06.141Z,14.54
2019-03-06T13:53:37.849Z,14.67
2019-03-06T13:56:10.148Z,14.28
2019-03-06T13:58:42.111Z,13.90
2019-03-06T14:01:14.805Z,13.35
2019-03-06T14:03:46.889Z,12.76
2019-03-06T14:06:18.845Z,12.43
2019-03-06T14:08:50.343Z,11.90
2019-03-06T14:11:21.931Z,12.24
2019-03-06T14:13:53.633Z,12.35
2019-03-06T14:16:25.659Z,12.77
2019-03-06T14:18:57.291Z,12.88
2019-03-06T14:21:28.960Z,12.16
2019-03-06T14:24:00.550Z,11.66
2019-03-06T14:26:32.459Z,11.63
2019-03-06T14:29:04.293Z,11.01
2019-03-06T14:31:35.940Z,11.00
2019-03-06T14:34:07.481Z,11.18
2019-03-06T14:36:39.158Z,10.99
2019-03-06T14:39:28.701Z,11.18
2019-03-06T14:42:00.763Z,11.09
2019-03-06T14:44:33.701Z,10.86
2019-03-06T14:47:06.131Z,10.77
2019-03-06T14:49:37.880Z,11.06
2019-03-06T14:52:09.466Z,11.05
2019-03-06T14:54:42.785Z,11.16
2019-03-06T14:57:14.681Z,10.94
2019-03-06T14:59:46.294Z,11.06
2019-03-06T15:02:17.815Z,10.90
2019-03-06T15:04:49.539Z,10.89
2019-03-06T15:07:21.047Z,10.68
2019-03-06T15:09:54.903Z,10.77
2019-03-06T15:12:27.688Z,10.68
2019-03-06T15:14:59.385Z,10.60
2019-03-06T15:17:31.174Z,10.50
2019-03-06T15:20:02.865Z,10.45
2019-03-06T15:22:38.659Z,10.50
2019-03-06T15:25:11.549Z,10.61
2019-03-06T15:27:43.256Z,10.40
2019-03-06T15:30:16.235Z,10.26
2019-03-06T15:32:48.035Z,10.23
2019-03-06T15:35:19.808Z,10.26
2019-03-06T15:37:51.460Z,10.17
2019-03-06T15:40:25.081Z,10.14
2019-03-06T15:42:57.154Z,10.17
2019-03-06T15:45:32.816Z,10.26
2019-03-06T15:48:04.821Z,10.22
2019-03-06T15:50:36.977Z,10.17
2019-03-06T15:53:09.295Z,10.11
2019-03-06T15:55:42.695Z,10.14
2019-03-06T15:58:14.639Z,10.09
2019-03-06T16:00:46.832Z,10.06
2019-03-06T16:03:18.468Z,9.97
2019-03-06T16:05:50.157Z,9.88
2019-03-06T16:08:22.230Z,9.93
2019-03-06T16:10:54.678Z,9.90
2019-03-06T16:13:26.715Z,9.81
2019-03-06T16:15:58.352Z,9.60
2019-03-06T16:18:30.009Z,9.61
2019-03-06T16:21:01.891Z,9.67
2019-03-06T16:23:34.337Z,9.58
2019-03-06T16:26:06.556Z,9.57
2019-03-06T16:28:38.029Z,9.47
2019-03-06T16:31:10.776Z,9.39
2019-03-06T16:33:42.903Z,9.32
2019-03-06T16:36:14.660Z,9.26
2019-03-06T16:38:46.601Z,9.22
2019-03-06T16:41:18.386Z,9.15
2019-03-06T16:43:49.990Z,9.17
2019-03-06T16:46:22.037Z,9.10
2019-03-06T16:48:53.868Z,8.97
2019-03-06T16:51:25.704Z,8.94
2019-03-06T16:53:57.607Z,8.90
2019-03-06T16:56:29.424Z,8.89
2019-03-06T16:59:01.155Z,8.76
2019-03-06T17:01:32.884Z,8.73
2019-03-06T17:04:05.785Z,8.70
2019-03-06T17:06:37.373Z,8.70
2019-03-06T17:09:09.329Z,8.73
2019-03-06T17:11:41.319Z,8.69
2019-03-06T17:14:12.924Z,8.76
2019-03-06T17:16:45.061Z,8.46
2019-03-06T17:19:16.579Z,8.44
2019-03-06T17:21:49.865Z,8.47
2019-03-06T17:24:22.841Z,8.50
2019-03-06T17:26:54.755Z,8.49
2019-03-06T17:29:26.351Z,8.38
2019-03-06T17:31:57.729Z,8.29
2019-03-06T17:34:29.499Z,8.21
2019-03-06T17:37:01.408Z,8.28
2019-03-06T17:39:33.570Z,8.12
2019-03-06T17:42:05.357Z,8.16
2019-03-06T17:44:36.024Z,8.19
2019-03-06T17:47:08.267Z,8.10
2019-03-06T17:49:40.028Z,8.08
2019-03-06T17:52:11.844Z,8.08
2019-03-06T17:54:43.470Z,8.14
2019-03-06T17:57:15.293Z,8.04
2019-03-06T17:59:46.988Z,7.93
2019-03-06T18:02:18.870Z,7.99
2019-03-06T18:04:52.276Z,7.89
2019-03-06T18:07:23.951Z,7.74
2019-03-06T18:09:55.842Z,7.85
2019-03-06T18:12:27.486Z,7.81
2019-03-06T18:14:59.153Z,7.75
2019-03-06T18:17:31.050Z,7.74
2019-03-06T18:20:02.800Z,7.67
2019-03-06T18:22:34.651Z,7.63
2019-03-06T18:25:07.954Z,7.67
2019-03-06T18:27:39.431Z,7.70
2019-03-06T18:30:13.586Z,7.72
2019-03-06T18:32:45.493Z,7.68
2019-03-06T18:35:17.465Z,7.65
2019-03-06T18:37:49.136Z,7.55
2019-03-06T18:40:21.111Z,7.70
2019-03-06T18:42:54.772Z,7.61
2019-03-06T18:45:26.605Z,7.60
2019-03-06T18:47:58.362Z,7.59
2019-03-06T18:50:30.004Z,7.63
2019-03-06T18:53:01.776Z,7.60
2019-03-06T18:55:33.669Z,7.56
2019-03-06T18:58:05.174Z,7.55
2019-03-06T19:00:37.354Z,7.52
2019-03-06T19:03:10.305Z,7.53
2019-03-06T19:05:42.043Z,7.45
2019-03-06T19:08:13.725Z,7.41
2019-03-06T19:10:45.738Z,7.31
2019-03-06T19:13:17.876Z,7.38
2019-03-06T19:15:49.638Z,7.33
2019-03-06T19:18:22.370Z,7.30
2019-03-06T19:20:54.090Z,7.26
2019-03-06T19:23:25.758Z,7.26
2019-03-06T19:25:58.077Z,7.31
2019-03-06T19:28:29.929Z,7.29
2019-03-06T19:31:01.792Z,7.34
2019-03-06T19:33:33.721Z,7.21
2019-03-06T19:36:06.058Z,7.23
2019-03-06T19:38:37.905Z,7.17
2019-03-06T19:41:09.641Z,7.25
2019-03-06T19:43:40.959Z,7.23
2019-03-06T19:46:14.238Z,7.34
2019-03-06T19:48:45.870Z,7.27
2019-03-06T19:51:17.505Z,7.18
2019-03-06T19:53:49.268Z,7.23
2019-03-06T19:56:20.912Z,7.24
2019-03-06T19:58:52.765Z,7.20
2019-03-06T20:01:24.685Z,7.24
2019-03-06T20:03:56.410Z,7.16
2019-03-06T20:06:28.286Z,7.16
2019-03-06T20:09:00.380Z,7.14
2019-03-06T20:11:33.657Z,7.18
2019-03-06T20:14:05.295Z,7.13
2019-03-06T20:16:37.111Z,7.07
2019-03-06T20:19:08.967Z,7.09
2019-03-06T20:21:41.122Z,7.05
2019-03-06T20:24:13.248Z,7.02
2019-03-06T20:26:45.140Z,7.06
2019-03-06T20:29:17.091Z,6.91
2019-03-06T20:31:48.811Z,7.03
2019-03-06T20:34:20.982Z,6.99
2019-03-06T20:36:53.357Z,6.90
2019-03-06T20:39:25.093Z,6.94
2019-03-06T20:41:56.915Z,6.88
2019-03-06T20:44:28.473Z,6.84
2019-03-06T20:47:01.178Z,6.81
2019-03-06T20:49:33.295Z,6.85
2019-03-06T20:52:04.985Z,6.80
2019-03-06T20:54:36.865Z,6.77
2019-03-06T20:57:08.796Z,6.78
2019-03-06T20:59:44.092Z,6.65
2019-03-06T21:02:16.013Z,6.70
2019-03-06T21:04:47.623Z,6.77
2019-03-06T21:07:19.348Z,6.67
2019-03-06T21:09:51.493Z,6.70
2019-03-06T21:12:23.066Z,6.59
2019-03-06T21:14:54.920Z,6.58
2019-03-06T21:17:26.655Z,6.61
2019-03-06T21:19:58.435Z,6.55
2019-03-06T21:22:31.680Z,6.59
2019-03-06T21:25:03.414Z,6.50
2019-03-06T21:27:35.389Z,6.54
2019-03-06T21:30:09.371Z,6.51
2019-03-06T21:32:42.295Z,6.49
2019-03-06T21:35:14.924Z,6.51
2019-03-06T21:37:46.797Z,6.47
2019-03-06T21:40:19.003Z,6.46
2019-03-06T21:42:51.417Z,6.45
2019-03-06T21:45:23.163Z,6.46
2019-03-06T21:47:54.784Z,6.47
2019-03-06T21:50:26.214Z,6.52
2019-03-06T21:52:59.440Z,6.49
2019-03-06T21:55:31.389Z,6.45
2019-03-06T21:58:03.206Z,6.48
2019-03-06T22:00:35.175Z,6.42
2019-03-06T22:03:07.018Z,6.43
2019-03-06T22:05:38.784Z,6.37
2019-03-06T22:08:11.310Z,6.46
2019-03-06T22:10:43.302Z,6.38
2019-03-06T22:13:14.705Z,6.38
2019-03-06T22:15:46.584Z,6.51
2019-03-06T22:18:19.027Z,6.40
2019-03-06T22:20:50.652Z,6.46
2019-03-06T22:23:22.297Z,6.36
2019-03-06T22:25:54.007Z,6.44
2019-03-06T22:28:25.549Z,6.44
2019-03-06T22:30:57.267Z,6.39
2019-03-06T22:33:29.384Z,6.42
2019-03-06T22:36:02.111Z,6.40
2019-03-06T22:38:33.836Z,6.40
2019-03-06T22:41:05.949Z,6.37
2019-03-06T22:43:37.732Z,6.43
2019-03-06T22:46:09.463Z,6.39
2019-03-06T22:48:40.998Z,6.38
2019-03-06T22:51:12.866Z,6.39
2019-03-06T22:53:44.619Z,6.39
2019-03-06T22:56:16.304Z,6.33
2019-03-06T22:58:48.159Z,6.30
2019-03-06T23:01:34.153Z,6.42
2019-03-06T23:04:06.636Z,6.39
2019-03-06T23:06:38.395Z,6.38
2019-03-06T23:09:12.075Z,6.35
2019-03-06T23:11:44.251Z,6.24
2019-03-06T23:14:17.140Z,6.37
2019-03-06T23:16:48.830Z,6.39
2019-03-06T23:19:20.517Z,6.50
2019-03-06T23:21:53.806Z,6.47
2019-03-06T23:24:25.219Z,6.58
2019-03-06T23:26:57.490Z,6.44
2019-03-06T23:29:29.189Z,6.52
2019-03-06T23:32:00.950Z,6.51
2019-03-06T23:34:32.502Z,6.49
2019-03-06T23:37:05.637Z,6.42
2019-03-06T23:39:37.267Z,6.44
2019-03-06T23:42:07.896Z,6.45
2019-03-06T23:44:38.285Z,6.43
2019-03-06T23:47:08.894Z,6.39
2019-03-06T23:49:39.109Z,6.34
2019-03-06T23:52:11.105Z,6.31
2019-03-06T23:54:41.515Z,6.34
2019-03-06T23:57:11.706Z,6.28
2019-03-06T23:59:42.932Z,6.30
